Conti Salome — A8LL8 — position and weather

sailwx.info

Track history (hours):
 
Tides and Currents Weather Stations Pressure Air Temp Water Temp Dewpoint Dewpoint Depression Visibility Wind Speed Wind Dir Waves Ship Positions

Conti Salome

Last reported at 2017-Dec-15 11:33 UTC. Time now 2017-Dec-17 10:07 UTC.
Position N 32°02' W 117°39'.

Length 203 m; beam 28 m; draft 11 m.

Type: Cargo ship. MMSI: 636017730.

Date/timePositionNaut miles runAvg speedWind from/ knotsBaromVisibWave heightAir tempDewpointWater temp
2017-Dec-15 11:33N 32°02' W 117°39'116.5
2017-Dec-15 11:30N 32°03' W 117°39'816.8
2017-Dec-15 11:00N 32°11' W 117°41'816.5
2017-Dec-15 10:30N 32°19' W 117°44'611.9
2017-Dec-15 10:00N 32°24' W 117°48'5 9.2
2017-Dec-15 09:30N 32°27' W 117°51'612.9
2017-Dec-15 09:01N 32°32' W 117°56'816.3
2017-Dec-15 08:31N 32°39' W 118°02'816.4
2017-Dec-15 08:00N 32°46' W 118°07'816.2
2017-Dec-15 07:31N 32°52' W 118°13'816.2
2017-Dec-15 07:01N 32°59' W 118°19'816.3
2017-Dec-15 06:30N 33°06' W 118°24'816.2
2017-Dec-15 06:00N 33°12' W 118°30'816.2
2017-Dec-15 05:30N 33°18' W 118°36'816.1
2017-Dec-15 05:00N 33°25' W 118°42'816.4
2017-Dec-15 04:30N 33°31' W 118°48'916.4
2017-Dec-15 03:57N 33°39' W 118°55'2316.1
2017-Dec-15 02:30N 33°58' W 119°11'11 7.0
2017-Dec-15 00:53N 34°09' W 119°12'0 0.0
2017-Dec-14 18:29N 34°09' W 119°12'0 0.0
2017-Dec-14 17:59N 34°09' W 119°12'0 0.0
2017-Dec-14 17:29N 34°09' W 119°12'0 0.0
2017-Dec-14 16:27N 34°09' W 119°12'0 0.0
2017-Dec-14 15:46N 34°09' W 119°12'0 0.0
2017-Dec-14 14:09N 34°09' W 119°12'0 0.0
2017-Dec-14 13:45N 34°09' W 119°12'0 0.0
2017-Dec-14 13:21N 34°09' W 119°12'0 0.0
2017-Dec-14 13:00N 34°09' W 119°12'0 0.0
2017-Dec-14 12:21N 34°09' W 119°12'0 0.0
2017-Dec-14 11:56N 34°09' W 119°12'0 0.0
2017-Dec-14 11:23N 34°09' W 119°12'0 0.0
2017-Dec-14 10:59N 34°09' W 119°12'0 0.0
2017-Dec-14 10:29N 34°09' W 119°12'0 0.0
2017-Dec-14 09:01N 34°09' W 119°12'0 0.0
2017-Dec-14 08:52N 34°09' W 119°12'0 0.0
2017-Dec-14 06:45N 34°09' W 119°12'0 0.0
2017-Dec-14 06:30N 34°09' W 119°12'0 0.0
2017-Dec-14 05:21N 34°09' W 119°12'0 0.0
2017-Dec-14 04:54N 34°09' W 119°12'0 0.0
2017-Dec-14 04:15N 34°09' W 119°12'0 0.0
2017-Dec-14 04:00N 34°09' W 119°12'0 0.0
2017-Dec-14 01:23N 34°09' W 119°12'0 0.0
2017-Dec-13 23:52N 34°09' W 119°12'0 0.0
2017-Dec-13 23:22N 34°09' W 119°12'0 0.0
2017-Dec-13 22:15N 34°09' W 119°12'0 0.0
2017-Dec-13 17:40N 34°09' W 119°12'0 0.0
2017-Dec-13 15:46N 34°09' W 119°12'0 0.0
2017-Dec-13 14:30N 34°09' W 119°12'1 1.4
2017-Dec-13 13:59N 34°08' W 119°13'5 8.5
2017-Dec-13 13:27N 34°04' W 119°15'613.8
2017-Dec-13 13:00N 33°58' W 119°12'815.7
2017-Dec-13 12:30N 33°52' W 119°07'816.1
2017-Dec-13 12:00N 33°45' W 119°01'816.3
2017-Dec-13 11:30N 33°39' W 118°55'816.4
2017-Dec-13 11:00N 33°32' W 118°49'816.3
2017-Dec-13 10:30N 33°26' W 118°43'816.3
2017-Dec-13 10:01N 33°20' W 118°37'816.3
2017-Dec-13 09:31N 33°13' W 118°31'816.4
2017-Dec-13 09:00N 33°06' W 118°25'816.3
2017-Dec-13 08:31N 32°60' W 118°20'816.2
2017-Dec-13 08:01N 32°53' W 118°14'816.1
2017-Dec-13 07:30N 32°47' W 118°08'816.2
2017-Dec-13 07:00N 32°40' W 118°03'816.1
2017-Dec-13 06:30N 32°34' W 117°57'714.1
2017-Dec-13 06:00N 32°28' W 117°53'612.7
2017-Dec-13 05:30N 32°22' W 117°50'612.5
2017-Dec-13 05:00N 32°16' W 117°47'917.2
2017-Dec-13 04:30N 32°08' W 117°43'  
2017-Dec-10 00:00N 17°06' W 100°54'21518.0 1012.010.8 29.029.030.0
2017-Dec-09 12:00N 15°36' W 097°30'   1012.510.8 27.027.028.0
Track history (hours):
 
Tides and Currents Weather Stations Pressure Air Temp Water Temp Dewpoint Dewpoint Depression Visibility Wind Speed Wind Dir Waves Ship Positions

Conti Salome

Last reported at 2017-Dec-15 11:33 UTC. Time now 2017-Dec-17 10:07 UTC.
Position N 32°02' W 117°39'.

Length 203 m; beam 28 m; draft 11 m.

Type: Cargo ship. MMSI: 636017730.

Date/timePositionNaut miles runAvg speedWind from/ knotsBaromVisibWave heightAir tempDewpointWater temp
2017-Dec-15 11:33N 32°02' W 117°39'116.5
2017-Dec-15 11:30N 32°03' W 117°39'816.8
2017-Dec-15 11:00N 32°11' W 117°41'816.5
2017-Dec-15 10:30N 32°19' W 117°44'611.9
2017-Dec-15 10:00N 32°24' W 117°48'5 9.2
2017-Dec-15 09:30N 32°27' W 117°51'612.9
2017-Dec-15 09:01N 32°32' W 117°56'816.3
2017-Dec-15 08:31N 32°39' W 118°02'816.4
2017-Dec-15 08:00N 32°46' W 118°07'816.2
2017-Dec-15 07:31N 32°52' W 118°13'816.2
2017-Dec-15 07:01N 32°59' W 118°19'816.3
2017-Dec-15 06:30N 33°06' W 118°24'816.2
2017-Dec-15 06:00N 33°12' W 118°30'816.2
2017-Dec-15 05:30N 33°18' W 118°36'816.1
2017-Dec-15 05:00N 33°25' W 118°42'816.4
2017-Dec-15 04:30N 33°31' W 118°48'916.4
2017-Dec-15 03:57N 33°39' W 118°55'2316.1
2017-Dec-15 02:30N 33°58' W 119°11'11 7.0
2017-Dec-15 00:53N 34°09' W 119°12'0 0.0
2017-Dec-14 18:29N 34°09' W 119°12'0 0.0
2017-Dec-14 17:59N 34°09' W 119°12'0 0.0
2017-Dec-14 17:29N 34°09' W 119°12'0 0.0
2017-Dec-14 16:27N 34°09' W 119°12'0 0.0
2017-Dec-14 15:46N 34°09' W 119°12'0 0.0
2017-Dec-14 14:09N 34°09' W 119°12'0 0.0
2017-Dec-14 13:45N 34°09' W 119°12'0 0.0
2017-Dec-14 13:21N 34°09' W 119°12'0 0.0
2017-Dec-14 13:00N 34°09' W 119°12'0 0.0
2017-Dec-14 12:21N 34°09' W 119°12'0 0.0
2017-Dec-14 11:56N 34°09' W 119°12'0 0.0
2017-Dec-14 11:23N 34°09' W 119°12'0 0.0
2017-Dec-14 10:59N 34°09' W 119°12'0 0.0
2017-Dec-14 10:29N 34°09' W 119°12'0 0.0
2017-Dec-14 09:01N 34°09' W 119°12'0 0.0
2017-Dec-14 08:52N 34°09' W 119°12'0 0.0
2017-Dec-14 06:45N 34°09' W 119°12'0 0.0
2017-Dec-14 06:30N 34°09' W 119°12'0 0.0
2017-Dec-14 05:21N 34°09' W 119°12'0 0.0
2017-Dec-14 04:54N 34°09' W 119°12'0 0.0
2017-Dec-14 04:15N 34°09' W 119°12'0 0.0
2017-Dec-14 04:00N 34°09' W 119°12'0 0.0
2017-Dec-14 01:23N 34°09' W 119°12'0 0.0
2017-Dec-13 23:52N 34°09' W 119°12'0 0.0
2017-Dec-13 23:22N 34°09' W 119°12'0 0.0
2017-Dec-13 22:15N 34°09' W 119°12'0 0.0
2017-Dec-13 17:40N 34°09' W 119°12'0 0.0
2017-Dec-13 15:46N 34°09' W 119°12'0 0.0
2017-Dec-13 14:30N 34°09' W 119°12'1 1.4
2017-Dec-13 13:59N 34°08' W 119°13'5 8.5
2017-Dec-13 13:27N 34°04' W 119°15'613.8
2017-Dec-13 13:00N 33°58' W 119°12'815.7
2017-Dec-13 12:30N 33°52' W 119°07'816.1
2017-Dec-13 12:00N 33°45' W 119°01'816.3
2017-Dec-13 11:30N 33°39' W 118°55'816.4
2017-Dec-13 11:00N 33°32' W 118°49'816.3
2017-Dec-13 10:30N 33°26' W 118°43'816.3
2017-Dec-13 10:01N 33°20' W 118°37'816.3
2017-Dec-13 09:31N 33°13' W 118°31'816.4
2017-Dec-13 09:00N 33°06' W 118°25'816.3
2017-Dec-13 08:31N 32°60' W 118°20'816.2
2017-Dec-13 08:01N 32°53' W 118°14'816.1
2017-Dec-13 07:30N 32°47' W 118°08'816.2
2017-Dec-13 07:00N 32°40' W 118°03'816.1
2017-Dec-13 06:30N 32°34' W 117°57'714.1
2017-Dec-13 06:00N 32°28' W 117°53'612.7
2017-Dec-13 05:30N 32°22' W 117°50'612.5
2017-Dec-13 05:00N 32°16' W 117°47'917.2
2017-Dec-13 04:30N 32°08' W 117°43'  
2017-Dec-10 00:00N 17°06' W 100°54'21518.0 1012.010.8 29.029.030.0
2017-Dec-09 12:00N 15°36' W 097°30'   1012.510.8 27.027.028.0

Dump ship's entire track history